Porterdale, Georgia
Current Conditions -  °F | °C
As of 1:55 PM on Sunday 23 Nov 2014 (Local Time) from KCVC Reporting Station
Light Rain Light Rain  
Wind Chill: 54°   Ceiling: 400
Heat Index: 54°   Visibility: 2mi
Dew Point: 52°   Wind: 9mph
Humidity: 94%   Direction: 70°ENE
Pressure: 29.83"   Gusts: 16mph
Location:  33.58°N, 83.89°W
Report Text: KCVC 231855Z AUTO 07008G14KT 2SM -RA OVC004 12/11 A2983 RMK AO2 LTG DSNT N AND NE
Loading
Personal Weather Stations






























Interactive Weather Map New forecast layout! Learn more

10-Day Weather Forecast

Advertisements
Track Severe Weather on mobile